Time;durP1;ratioP1;P1;durP2;ratioP2;P2;SDS_P1;SDS_P2;PMS_P1;PMS_P2;Temp;Humidity;BMP_temperature;BMP_pressure;BME280_temperature;BME280_humidity;BME280_pressure;Samples;Min_cycle;Max_cycle;Signal;HPM_P1;HPM_P2
2023/12/24 00:00:13;;;;;;;1.02;0.47;;;9.50;1.00;;;;;;7374816;19;20373;-71
2023/12/24 00:02:46;;;;;;;1.75;1.10;;;9.50;1.00;;;;;;7375849;19;20031;-70
2023/12/24 00:05:16;;;;;;;1.30;0.90;;;9.60;1.00;;;;;;7376813;19;20011;-70
2023/12/24 00:07:46;;;;;;;1.13;0.82;;;9.60;1.00;;;;;;7375292;19;20471;-70
2023/12/24 00:10:16;;;;;;;0.98;0.70;;;9.50;1.00;;;;;;7377371;19;20007;-70
2023/12/24 00:12:46;;;;;;;0.90;0.52;;;9.50;1.00;;;;;;7375511;19;20010;-71
2023/12/24 00:15:18;;;;;;;1.75;1.05;;;9.60;1.00;;;;;;7374837;19;20036;-71
2023/12/24 00:17:51;;;;;;;2.08;0.70;;;9.50;1.00;;;;;;7375499;19;20018;-71
2023/12/24 00:20:21;;;;;;;0.85;0.63;;;9.50;1.00;;;;;;7378032;19;20088;-71
2023/12/24 00:23:06;;;;;;;1.75;0.65;;;9.50;1.00;;;;;;7375247;19;20022;-70
2023/12/24 00:25:37;;;;;;;1.25;0.60;;;9.60;1.00;;;;;;7374832;19;20027;-71
2023/12/24 00:28:08;;;;;;;1.23;0.70;;;9.60;1.00;;;;;;7375280;19;20015;-70
2023/12/24 00:30:38;;;;;;;0.90;0.40;;;9.60;1.00;;;;;;7376731;19;20463;-71
2023/12/24 00:33:11;;;;;;;0.80;0.52;;;9.60;1.00;;;;;;7374447;19;20376;-70
2023/12/24 00:35:41;;;;;;;1.20;0.70;;;9.60;1.00;;;;;;7373275;19;20011;-71
2023/12/24 00:38:11;;;;;;;1.17;0.60;;;9.60;1.00;;;;;;7376709;19;20485;-70
2023/12/24 00:40:42;;;;;;;1.15;0.60;;;9.60;1.00;;;;;;7376680;19;20014;-71
2023/12/24 00:43:13;;;;;;;1.30;0.45;;;9.50;1.00;;;;;;7373360;19;20006;-71
2023/12/24 00:45:44;;;;;;;0.70;0.50;;;9.50;1.00;;;;;;7376794;19;20014;-71
2023/12/24 00:48:17;;;;;;;0.85;0.40;;;9.50;1.00;;;;;;7376586;19;20031;-71
2023/12/24 00:50:47;;;;;;;0.70;0.40;;;9.60;1.00;;;;;;7376802;19;20758;-70
2023/12/24 00:53:17;;;;;;;0.52;0.40;;;9.60;1.00;;;;;;7375754;19;20019;-70
2023/12/24 00:55:48;;;;;;;0.35;0.30;;;9.50;1.00;;;;;;7375514;19;20036;-71
2023/12/24 00:58:18;;;;;;;1.55;0.50;;;9.50;1.00;;;;;;7375063;19;20026;-70
2023/12/24 01:00:48;;;;;;;0.35;0.30;;;9.50;1.00;;;;;;7374984;19;20021;-71
2023/12/24 01:03:21;;;;;;;0.93;0.55;;;9.50;1.00;;;;;;7374139;19;20011;-70
2023/12/24 01:05:51;;;;;;;1.13;0.57;;;9.50;1.00;;;;;;7374219;19;20023;-71
2023/12/24 01:08:21;;;;;;;1.27;0.40;;;9.60;1.00;;;;;;7374771;19;20010;-70
2023/12/24 01:10:51;;;;;;;0.90;0.50;;;9.50;1.00;;;;;;7375194;19;20082;-71
2023/12/24 01:13:22;;;;;;;1.13;0.57;;;9.60;1.00;;;;;;7375111;19;20543;-71
2023/12/24 01:15:52;;;;;;;0.77;0.50;;;9.60;1.00;;;;;;7374397;19;20011;-71
2023/12/24 01:18:26;;;;;;;0.75;0.50;;;9.60;1.00;;;;;;7374709;19;20018;-71
2023/12/24 01:20:56;;;;;;;2.83;0.73;;;9.60;1.00;;;;;;7374909;19;20370;-70
2023/12/24 01:23:26;;;;;;;0.50;0.43;;;9.60;1.00;;;;;;7376319;19;20003;-70
2023/12/24 01:25:56;;;;;;;0.98;0.55;;;9.60;1.00;;;;;;7374543;19;20014;-71
2023/12/24 01:28:27;;;;;;;1.17;0.65;;;9.70;1.00;;;;;;7373479;19;20029;-71
2023/12/24 01:30:57;;;;;;;1.40;0.55;;;9.60;1.00;;;;;;7375353;19;20095;-71
2023/12/24 01:33:30;;;;;;;0.75;0.50;;;9.50;1.00;;;;;;7375584;19;20096;-70
2023/12/24 01:36:00;;;;;;;1.35;0.77;;;9.50;1.00;;;;;;7373591;19;20019;-71
2023/12/24 01:38:30;;;;;;;1.05;0.70;;;9.60;1.00;;;;;;7373791;19;20014;-71
2023/12/24 01:41:00;;;;;;;1.10;0.60;;;9.60;1.00;;;;;;7376364;19;20074;-70
2023/12/24 01:43:30;;;;;;;2.72;0.80;;;9.50;1.00;;;;;;7374262;19;20023;-70
2023/12/24 01:46:00;;;;;;;0.80;0.65;;;9.50;1.00;;;;;;7375031;19;20014;-70
2023/12/24 01:48:33;;;;;;;1.48;0.50;;;9.50;1.00;;;;;;7381122;19;20014;-70
2023/12/24 01:51:03;;;;;;;1.73;0.70;;;9.50;1.00;;;;;;7380336;19;20464;-71
2023/12/24 01:53:34;;;;;;;0.95;0.50;;;9.40;1.00;;;;;;7380440;19;26746;-70
2023/12/24 01:56:06;;;;;;;3.38;0.75;;;9.40;1.00;;;;;;7380317;19;20051;-70
2023/12/24 01:58:37;;;;;;;1.13;0.60;;;9.40;1.00;;;;;;7380284;19;20014;-70
2023/12/24 02:01:07;;;;;;;0.98;0.65;;;9.40;1.00;;;;;;7380282;19;20074;-70
2023/12/24 02:03:39;;;;;;;1.52;0.60;;;9.40;1.00;;;;;;7381481;19;20006;-70
2023/12/24 02:06:12;;;;;;;2.08;0.65;;;9.40;1.00;;;;;;7381055;19;20025;-70
2023/12/24 02:08:44;;;;;;;2.33;0.60;;;9.30;1.00;;;;;;7381187;19;20455;-71
2023/12/24 02:11:15;;;;;;;1.60;0.65;;;9.30;1.00;;;;;;7380915;19;20010;-70
2023/12/24 02:13:45;;;;;;;0.77;0.55;;;9.30;1.00;;;;;;7379044;19;20028;-71
2023/12/24 02:16:19;;;;;;;0.60;0.57;;;9.30;1.00;;;;;;7378350;19;20082;-71
2023/12/24 02:18:52;;;;;;;0.50;0.40;;;9.30;1.00;;;;;;7379887;19;20024;-70
2023/12/24 02:21:25;;;;;;;2.55;0.68;;;9.30;1.00;;;;;;7380520;19;20048;-70
2023/12/24 02:23:55;;;;;;;1.88;0.60;;;9.30;1.00;;;;;;7380146;19;20111;-70
2023/12/24 02:26:30;;;;;;;1.08;0.57;;;9.30;1.00;;;;;;7379929;19;20060;-71
2023/12/24 02:29:03;;;;;;;;;;;9.50;1.00;;;;;;7380312;19;20014;-70
2023/12/24 02:31:35;;;;;;;1.17;0.60;;;9.50;1.00;;;;;;7379357;19;20341;-71
2023/12/24 02:34:06;;;;;;;1.55;0.70;;;9.40;1.00;;;;;;7380067;19;20007;-70
2023/12/24 02:36:41;;;;;;;1.02;0.60;;;9.40;1.00;;;;;;7381057;19;20029;-70
2023/12/24 02:39:11;;;;;;;0.63;0.50;;;9.40;1.00;;;;;;7378500;19;20045;-70
2023/12/24 02:41:41;;;;;;;1.48;0.52;;;9.40;1.00;;;;;;7377348;19;20017;-71
2023/12/24 02:44:13;;;;;;;0.50;0.30;;;9.50;1.00;;;;;;7377274;19;20006;-71
2023/12/24 02:46:43;;;;;;;1.75;0.57;;;9.40;1.00;;;;;;7378502;19;20070;-71
2023/12/24 02:49:14;;;;;;;1.13;0.60;;;9.50;1.00;;;;;;7377253;19;20014;-70
2023/12/24 02:51:47;;;;;;;0.50;0.40;;;9.50;1.00;;;;;;7373897;19;20007;-70
2023/12/24 02:54:17;;;;;;;1.33;0.40;;;9.40;1.00;;;;;;7375392;19;20017;-71
2023/12/24 02:56:47;;;;;;;0.95;0.43;;;9.40;1.00;;;;;;7378073;19;20010;-70
2023/12/24 02:59:17;;;;;;;0.43;0.30;;;9.40;1.00;;;;;;7374398;19;20003;-71
2023/12/24 03:01:48;;;;;;;0.80;0.50;;;9.40;1.00;;;;;;7376813;19;20012;-70
2023/12/24 03:04:16;;;;;;;1.02;0.73;;;9.40;1.00;;;;;;7376123;19;20494;-70
2023/12/24 03:06:48;;;;;;;1.27;0.50;;;9.40;1.00;;;;;;7379279;19;20013;-70
2023/12/24 03:09:18;;;;;;;2.63;0.50;;;9.30;1.00;;;;;;7374401;19;20010;-71
2023/12/24 03:11:48;;;;;;;0.73;0.50;;;9.30;1.00;;;;;;7376569;19;20013;-71
2023/12/24 03:14:18;;;;;;;0.50;0.30;;;9.30;1.00;;;;;;7377384;19;20018;-71
2023/12/24 03:16:48;;;;;;;1.13;0.47;;;9.30;1.00;;;;;;7379023;19;20037;-71
2023/12/24 03:19:20;;;;;;;0.55;0.30;;;9.30;1.00;;;;;;7378070;19;20025;-70
2023/12/24 03:21:53;;;;;;;0.32;0.30;;;9.30;1.00;;;;;;7376437;19;20006;-71
2023/12/24 03:24:23;;;;;;;0.43;0.25;;;9.30;1.00;;;;;;7373695;19;20081;-71
2023/12/24 03:26:54;;;;;;;0.68;0.35;;;9.30;1.00;;;;;;7376466;19;20006;-71
2023/12/24 03:29:24;;;;;;;0.63;0.40;;;9.20;1.00;;;;;;7375211;19;20033;-70
2023/12/24 03:31:54;;;;;;;1.35;0.45;;;9.20;1.00;;;;;;7376139;19;20022;-70
2023/12/24 03:34:24;;;;;;;0.30;0.30;;;9.20;1.00;;;;;;7375182;19;20014;-70
2023/12/24 03:36:57;;;;;;;1.38;0.30;;;9.10;1.00;;;;;;7376418;19;20010;-70
2023/12/24 03:39:27;;;;;;;0.88;0.47;;;9.10;1.00;;;;;;7197383;19;3509307;-71
2023/12/24 03:41:57;;;;;;;0.85;0.40;;;9.10;1.00;;;;;;7378302;19;20014;-71
2023/12/24 03:44:27;;;;;;;0.57;0.40;;;9.10;1.00;;;;;;7376862;19;20570;-71
2023/12/24 03:46:57;;;;;;;0.80;0.40;;;9.10;1.00;;;;;;7378576;19;20478;-70
2023/12/24 03:49:27;;;;;;;0.93;0.50;;;9.10;1.00;;;;;;7376257;19;20019;-70
2023/12/24 03:51:59;;;;;;;1.33;0.60;;;9.10;1.00;;;;;;7378017;19;20510;-71
2023/12/24 03:54:30;;;;;;;0.75;0.50;;;9.10;1.00;;;;;;7377572;19;20340;-70
2023/12/24 03:56:59;;;;;;;0.65;0.60;;;9.10;1.00;;;;;;7377217;19;20011;-71
2023/12/24 03:59:30;;;;;;;1.10;0.65;;;9.10;1.00;;;;;;7377500;19;20015;-71
2023/12/24 04:02:02;;;;;;;0.80;0.52;;;9.10;1.00;;;;;;7377701;19;20011;-71
2023/12/24 04:04:32;;;;;;;2.30;0.65;;;9.10;1.00;;;;;;7377234;19;20012;-70
2023/12/24 04:07:05;;;;;;;1.15;0.60;;;9.10;1.00;;;;;;7378631;19;20013;-70
2023/12/24 04:09:35;;;;;;;0.82;0.60;;;9.20;1.00;;;;;;7374377;19;20010;-70
2023/12/24 04:12:06;;;;;;;1.42;0.80;;;9.20;1.00;;;;;;7377140;19;20014;-71
2023/12/24 04:14:38;;;;;;;2.38;0.65;;;9.20;1.00;;;;;;7376936;19;20825;-70
2023/12/24 04:17:09;;;;;;;0.90;0.60;;;9.20;1.00;;;;;;7376828;19;20061;-70
2023/12/24 04:19:40;;;;;;;1.88;0.73;;;9.30;1.00;;;;;;7376579;19;20011;-70
2023/12/24 04:22:13;;;;;;;1.25;0.73;;;9.20;1.00;;;;;;7376989;19;20047;-70
2023/12/24 04:24:44;;;;;;;0.57;0.50;;;9.30;1.00;;;;;;7375428;19;20026;-70
2023/12/24 04:27:14;;;;;;;1.60;0.68;;;9.20;1.00;;;;;;7376371;19;20042;-70
2023/12/24 04:29:44;;;;;;;2.42;0.60;;;9.20;1.00;;;;;;7377311;19;20499;-70
2023/12/24 04:32:16;;;;;;;0.63;0.60;;;9.30;1.00;;;;;;7377141;19;20006;-70
2023/12/24 04:34:47;;;;;;;0.90;0.70;;;9.30;1.00;;;;;;7375479;19;20007;-70
2023/12/24 04:37:19;;;;;;;1.27;0.73;;;9.30;1.00;;;;;;7377132;19;20014;-70
2023/12/24 04:39:49;;;;;;;0.95;0.55;;;9.30;1.00;;;;;;7378796;19;20007;-70
2023/12/24 04:42:19;;;;;;;0.90;0.50;;;9.30;1.00;;;;;;7377600;19;20098;-70
2023/12/24 04:44:50;;;;;;;1.90;0.55;;;9.30;1.00;;;;;;7373245;19;20006;-69
2023/12/24 04:47:21;;;;;;;0.65;0.52;;;9.30;1.00;;;;;;7377660;19;20014;-70
2023/12/24 04:49:51;;;;;;;1.10;0.75;;;9.20;1.00;;;;;;7379063;19;20620;-70
2023/12/24 04:52:23;;;;;;;0.60;0.50;;;9.20;1.00;;;;;;7378459;19;20006;-72
2023/12/24 04:54:53;;;;;;;0.68;0.50;;;9.20;1.00;;;;;;7377597;19;20007;-70
2023/12/24 04:57:23;;;;;;;1.30;0.63;;;9.20;1.00;;;;;;7377179;19;20043;-69
2023/12/24 04:59:54;;;;;;;1.00;0.50;;;9.10;1.00;;;;;;7374794;19;20015;-70
2023/12/24 05:02:24;;;;;;;1.63;0.50;;;9.10;1.00;;;;;;7376265;19;20022;-70
2023/12/24 05:04:54;;;;;;;0.73;0.50;;;9.10;1.00;;;;;;7376312;19;20016;-71
2023/12/24 05:07:27;;;;;;;0.70;0.50;;;9.00;1.00;;;;;;7375737;19;20059;-70
2023/12/24 05:09:57;;;;;;;0.55;0.40;;;9.00;1.00;;;;;;7376386;19;20031;-70
2023/12/24 05:12:27;;;;;;;0.77;0.50;;;9.00;1.00;;;;;;7375769;19;20052;-71
2023/12/24 05:14:57;;;;;;;0.68;0.60;;;8.90;1.00;;;;;;7376437;19;20010;-70
2023/12/24 05:17:27;;;;;;;0.43;0.40;;;8.90;1.00;;;;;;7373936;19;20011;-70
2023/12/24 05:19:57;;;;;;;1.05;0.55;;;8.90;1.00;;;;;;7375600;19;20094;-70
2023/12/24 05:22:30;;;;;;;0.75;0.40;;;8.80;1.00;;;;;;7375819;19;20002;-70
2023/12/24 05:25:00;;;;;;;1.05;0.55;;;8.80;1.00;;;;;;7374931;19;20011;-70
2023/12/24 05:27:30;;;;;;;0.38;0.30;;;8.80;1.00;;;;;;7374460;19;20010;-70
2023/12/24 05:30:00;;;;;;;0.80;0.52;;;8.80;1.00;;;;;;7375625;19;20018;-71
2023/12/24 05:32:30;;;;;;;0.85;0.40;;;8.70;1.00;;;;;;7374481;19;20022;-70
2023/12/24 05:35:00;;;;;;;2.60;0.38;;;8.70;1.00;;;;;;7372954;19;20042;-70
2023/12/24 05:37:33;;;;;;;0.30;0.30;;;8.70;1.00;;;;;;7375734;19;20050;-70
2023/12/24 05:40:00;;;;;;;0.70;0.43;;;8.80;1.00;;;;;;7376767;19;20010;-70
2023/12/24 05:42:30;;;;;;;0.88;0.40;;;8.80;1.00;;;;;;7377020;19;20021;-70
2023/12/24 05:45:00;;;;;;;0.25;0.25;;;8.80;1.00;;;;;;7375100;19;20066;-70
2023/12/24 05:47:30;;;;;;;0.43;0.32;;;8.80;1.00;;;;;;7375103;19;20006;-70
2023/12/24 05:50:00;;;;;;;1.05;0.40;;;8.80;1.00;;;;;;7375291;19;20022;-70
2023/12/24 05:52:33;;;;;;;1.17;0.50;;;8.80;1.00;;;;;;7375012;19;20508;-71
2023/12/24 05:55:04;;;;;;;0.30;0.20;;;8.80;1.00;;;;;;7374647;19;20082;-69
2023/12/24 05:57:34;;;;;;;0.98;0.55;;;8.80;1.00;;;;;;7373868;19;20013;-70
2023/12/24 06:00:05;;;;;;;0.68;0.20;;;8.80;1.00;;;;;;7372945;19;20011;-69
2023/12/24 06:02:47;;;;;;;1.65;0.40;;;8.80;1.00;;;;;;7374940;19;20049;-71
2023/12/24 06:05:17;;;;;;;1.40;0.40;;;8.80;1.00;;;;;;7373848;19;20002;-70
2023/12/24 06:07:50;;;;;;;0.40;0.30;;;8.80;1.00;;;;;;7373844;19;20010;-71
2023/12/24 06:10:20;;;;;;;0.43;0.28;;;8.80;1.00;;;;;;7375483;19;20003;-69
2023/12/24 06:12:54;;;;;;;0.55;0.30;;;8.80;1.00;;;;;;7375876;19;20043;-70
2023/12/24 06:15:24;;;;;;;0.30;0.22;;;8.80;1.00;;;;;;7376441;19;20456;-70
2023/12/24 06:17:54;;;;;;;0.38;0.20;;;8.90;1.00;;;;;;7375007;19;20014;-70
2023/12/24 06:20:24;;;;;;;0.30;0.30;;;8.90;1.00;;;;;;7375964;19;20366;-70
2023/12/24 06:22:57;;;;;;;0.43;0.30;;;8.90;1.00;;;;;;7375036;19;20437;-70
2023/12/24 06:25:27;;;;;;;0.65;0.40;;;8.90;1.00;;;;;;7374125;19;20018;-70
2023/12/24 06:27:57;;;;;;;0.52;0.40;;;8.90;1.00;;;;;;7373638;19;20360;-71
2023/12/24 06:30:27;;;;;;;0.82;0.45;;;8.90;1.00;;;;;;7375148;19;20015;-71
2023/12/24 06:32:57;;;;;;;0.40;0.30;;;8.90;1.00;;;;;;7378279;19;20006;-70
2023/12/24 06:35:27;;;;;;;0.60;0.40;;;9.00;1.00;;;;;;7381272;19;20010;-70
2023/12/24 06:38:00;;;;;;;0.93;0.20;;;9.00;1.00;;;;;;7381688;19;20538;-70
2023/12/24 06:40:30;;;;;;;0.40;0.30;;;9.00;1.00;;;;;;7381748;19;20010;-70
2023/12/24 06:43:00;;;;;;;0.70;0.40;;;8.90;1.00;;;;;;7381506;19;20466;-69
2023/12/24 06:45:30;;;;;;;0.50;0.38;;;9.00;1.00;;;;;;7380490;19;20006;-69
2023/12/24 06:48:02;;;;;;;1.52;1.10;;;9.00;1.00;;;;;;7378963;19;20089;-70
2023/12/24 06:50:33;;;;;;;1.52;0.90;;;8.90;1.00;;;;;;7379955;19;20030;-70
2023/12/24 06:53:06;;;;;;;1.48;0.70;;;9.00;1.00;;;;;;7381605;19;20085;-69
2023/12/24 06:55:36;;;;;;;1.10;0.70;;;9.00;1.00;;;;;;7381365;19;20380;-70
2023/12/24 06:58:06;;;;;;;1.38;0.70;;;9.00;1.00;;;;;;7380427;19;20029;-70
2023/12/24 07:00:36;;;;;;;0.57;0.30;;;9.00;1.00;;;;;;7380502;19;20014;-70
2023/12/24 07:03:07;;;;;;;0.43;0.28;;;9.00;1.00;;;;;;7379196;19;20466;-70
2023/12/24 07:05:38;;;;;;;0.40;0.20;;;9.10;1.00;;;;;;7379616;19;20019;-71
2023/12/24 07:08:12;;;;;;;0.57;0.30;;;9.10;1.00;;;;;;7379494;19;20022;-70
2023/12/24 07:10:42;;;;;;;0.50;0.30;;;9.10;1.00;;;;;;7380235;19;20011;-70
2023/12/24 07:13:12;;;;;;;0.47;0.30;;;9.10;1.00;;;;;;7379623;19;20390;-72
2023/12/24 07:15:43;;;;;;;0.47;0.38;;;9.00;1.00;;;;;;7380437;19;20352;-70
2023/12/24 07:18:13;;;;;;;0.57;0.35;;;9.00;1.00;;;;;;7379571;19;20040;-71
2023/12/24 07:20:44;;;;;;;0.45;0.35;;;9.10;1.00;;;;;;7380944;19;20020;-70
2023/12/24 07:23:17;;;;;;;1.73;0.50;;;9.10;1.00;;;;;;7380509;19;20014;-71
2023/12/24 07:25:47;;;;;;;0.80;0.43;;;9.00;1.00;;;;;;7378799;19;20061;-71
2023/12/24 07:28:17;;;;;;;0.55;0.35;;;9.00;1.00;;;;;;7378077;19;20039;-70
2023/12/24 07:30:47;;;;;;;0.40;0.30;;;8.90;1.00;;;;;;7379404;19;20563;-70
2023/12/24 07:33:19;;;;;;;9.43;4.45;;;8.90;1.00;;;;;;7379617;19;20490;-70
2023/12/24 07:35:49;;;;;;;2.35;1.60;;;8.90;1.00;;;;;;7379795;19;20007;-70
2023/12/24 07:38:22;;;;;;;1.48;0.60;;;8.90;1.00;;;;;;7378841;19;20473;-70
2023/12/24 07:40:52;;;;;;;1.27;0.80;;;8.80;1.00;;;;;;7381858;19;20380;-71
2023/12/24 07:43:22;;;;;;;0.50;0.40;;;8.80;1.00;;;;;;7377474;19;20023;-70
2023/12/24 07:45:52;;;;;;;0.85;0.40;;;8.90;1.00;;;;;;7379786;19;20515;-70
2023/12/24 07:48:24;;;;;;;0.85;0.40;;;8.90;1.00;;;;;;7378343;19;20582;-69
2023/12/24 07:50:54;;;;;;;1.90;0.40;;;8.90;1.00;;;;;;7381562;19;20010;-70
2023/12/24 07:53:26;;;;;;;0.85;0.47;;;9.00;1.00;;;;;;7380823;19;20013;-71
2023/12/24 07:55:56;;;;;;;0.70;0.57;;;9.00;1.00;;;;;;7380262;19;20011;-70
2023/12/24 07:58:26;;;;;;;0.50;0.40;;;9.00;1.00;;;;;;7381198;19;20077;-70
2023/12/24 08:00:56;;;;;;;0.63;0.50;;;9.00;1.00;;;;;;7377494;19;20007;-70
2023/12/24 08:03:27;;;;;;;0.35;0.35;;;9.10;1.00;;;;;;7381014;19;20035;-71
2023/12/24 08:05:57;;;;;;;1.40;0.50;;;9.10;1.00;;;;;;7380654;19;20503;-70
2023/12/24 08:08:29;;;;;;;0.50;0.40;;;9.10;1.00;;;;;;7378422;19;20575;-70
2023/12/24 08:10:59;;;;;;;0.60;0.40;;;9.10;1.00;;;;;;7375710;19;20017;-69
2023/12/24 08:13:42;;;;;;;0.50;0.35;;;9.20;1.00;;;;;;7382199;19;20503;-70
2023/12/24 08:16:13;;;;;;;0.45;0.38;;;9.20;1.00;;;;;;7379494;19;20719;-70
2023/12/24 08:18:43;;;;;;;0.47;0.40;;;9.20;1.00;;;;;;7378005;19;20018;-70
2023/12/24 08:21:13;;;;;;;0.47;0.30;;;9.30;1.00;;;;;;7379717;19;20010;-71
2023/12/24 08:23:46;;;;;;;0.70;0.38;;;9.30;1.00;;;;;;7378074;19;20021;-70
2023/12/24 08:26:18;;;;;;;1.17;0.40;;;9.40;1.00;;;;;;7379080;19;20041;-70
2023/12/24 08:28:48;;;;;;;0.80;0.40;;;9.30;1.00;;;;;;7378549;19;20463;-70
2023/12/24 08:31:18;;;;;;;0.30;0.30;;;9.30;1.00;;;;;;7374622;19;20015;-71
2023/12/24 08:33:48;;;;;;;0.68;0.30;;;9.40;1.00;;;;;;7378427;19;20363;-70
2023/12/24 08:36:19;;;;;;;0.57;0.30;;;9.40;1.00;;;;;;7377532;19;19998;-71
2023/12/24 08:38:52;;;;;;;0.80;0.40;;;9.40;1.00;;;;;;7377150;19;20575;-70
2023/12/24 08:41:22;;;;;;;2.83;0.47;;;9.40;1.00;;;;;;7378580;19;20066;-71
2023/12/24 08:43:52;;;;;;;0.47;0.25;;;9.40;1.00;;;;;;7378054;19;20511;-70
2023/12/24 08:46:22;;;;;;;0.40;0.30;;;9.50;1.00;;;;;;7376546;19;20048;-71
2023/12/24 08:48:52;;;;;;;0.47;0.30;;;9.50;1.00;;;;;;7376531;19;20006;-70
2023/12/24 08:51:22;;;;;;;0.80;0.43;;;9.50;1.00;;;;;;7378088;19;20030;-71
2023/12/24 08:53:54;;;;;;;0.55;0.32;;;9.50;1.00;;;;;;7375792;19;20011;-71
2023/12/24 08:56:25;;;;;;;0.30;0.20;;;9.60;1.00;;;;;;7377901;19;20078;-71
2023/12/24 08:58:55;;;;;;;0.30;0.30;;;9.60;1.00;;;;;;7376243;19;20805;-71
2023/12/24 09:01:25;;;;;;;0.50;0.20;;;9.60;1.00;;;;;;7378008;19;20126;-71
2023/12/24 09:03:55;;;;;;;0.35;0.20;;;9.70;1.00;;;;;;7377941;19;20006;-70
2023/12/24 09:06:25;;;;;;;0.82;0.30;;;9.60;1.00;;;;;;7377287;19;20010;-70
2023/12/24 09:08:57;;;;;;;0.75;0.32;;;9.60;1.00;;;;;;7377789;19;20368;-70
2023/12/24 09:11:28;;;;;;;2.20;0.32;;;9.60;1.00;;;;;;7375035;19;20455;-70
2023/12/24 09:13:58;;;;;;;0.50;0.20;;;9.50;1.00;;;;;;7379201;19;20007;-71
2023/12/24 09:16:28;;;;;;;0.25;0.20;;;9.50;1.00;;;;;;7379722;19;20014;-71
2023/12/24 09:18:58;;;;;;;5.88;2.90;;;9.40;1.00;;;;;;7376153;19;20011;-71
2023/12/24 09:21:28;;;;;;;2.20;1.45;;;9.40;1.00;;;;;;7378123;19;20097;-71
2023/12/24 09:24:01;;;;;;;0.20;0.20;;;9.40;1.00;;;;;;7377591;19;20007;-72
2023/12/24 09:26:31;;;;;;;0.40;0.20;;;9.40;1.00;;;;;;7380541;19;20006;-72
2023/12/24 09:29:01;;;;;;;0.80;0.30;;;9.40;1.00;;;;;;7377064;19;20015;-71
2023/12/24 09:31:31;;;;;;;0.85;0.28;;;9.40;1.00;;;;;;7378538;19;20044;-69
2023/12/24 09:34:02;;;;;;;0.90;0.40;;;9.40;1.00;;;;;;7378500;19;20003;-71
2023/12/24 09:36:33;;;;;;;0.45;0.20;;;9.30;1.00;;;;;;7378239;19;20031;-71
2023/12/24 09:39:05;;;;;;;1.42;0.30;;;9.30;1.00;;;;;;7377249;19;20010;-72
2023/12/24 09:41:37;;;;;;;0.20;0.10;;;9.30;1.00;;;;;;7374844;19;20006;-72
2023/12/24 09:44:10;;;;;;;2.28;0.30;;;9.30;1.00;;;;;;7375886;19;20023;-71
2023/12/24 09:46:40;;;;;;;1.85;0.30;;;9.30;1.00;;;;;;7376383;19;20409;-71
2023/12/24 09:49:10;;;;;;;0.55;0.30;;;9.30;1.00;;;;;;7375687;19;20668;-73
2023/12/24 09:51:44;;;;;;;0.63;0.43;;;9.40;1.00;;;;;;7377168;19;20015;-71
2023/12/24 09:54:17;;;;;;;2.43;0.37;;;9.30;1.00;;;;;;7376513;19;20105;-72
2023/12/24 09:56:47;;;;;;;0.65;0.40;;;9.40;1.00;;;;;;7376205;19;20021;-72
2023/12/24 09:59:17;;;;;;;1.02;0.40;;;9.40;1.00;;;;;;7376070;19;20011;-72
2023/12/24 10:01:45;;;;;;;2.92;0.50;;;9.40;1.00;;;;;;7376444;19;20074;-71
2023/12/24 10:04:16;;;;;;;1.20;0.50;;;9.40;1.00;;;;;;7377223;19;20034;-71
2023/12/24 10:06:56;;;;;;;1.60;0.57;;;9.40;1.00;;;;;;7375513;19;20086;-70
2023/12/24 10:09:44;;;;;;;3.55;0.50;;;9.30;1.00;;;;;;7381688;19;20011;-71
2023/12/24 10:12:15;;;;;;;1.55;0.50;;;9.40;1.00;;;;;;6871876;19;2004050;-72
2023/12/24 10:14:58;;;;;;;0.88;0.50;;;9.30;1.00;;;;;;7381976;19;20007;-71
2023/12/24 10:17:32;;;;;;;0.77;0.30;;;9.40;1.00;;;;;;7381871;19;20014;-71
2023/12/24 10:20:06;;;;;;;2.05;0.40;;;9.40;1.00;;;;;;7382791;19;20032;-71
2023/12/24 10:22:36;;;;;;;0.60;0.40;;;9.40;1.00;;;;;;7381021;19;20437;-73
2023/12/24 10:25:10;;;;;;;0.85;0.40;;;9.40;1.00;;;;;;7383094;19;20015;-71
2023/12/24 10:27:40;;;;;;;0.93;0.50;;;9.40;1.00;;;;;;7379083;19;20022;-72
2023/12/24 10:30:12;;;;;;;0.98;0.50;;;9.40;1.00;;;;;;7381911;19;20010;-72
2023/12/24 10:32:44;;;;;;;1.80;0.60;;;9.40;1.00;;;;;;7382899;19;20509;-71
2023/12/24 10:35:23;;;;;;;0.90;0.32;;;9.40;1.00;;;;;;7381897;19;20010;-71
2023/12/24 10:37:54;;;;;;;1.00;0.70;;;9.50;1.00;;;;;;7384426;19;20006;-71
2023/12/24 10:40:26;;;;;;;0.60;0.43;;;9.50;1.00;;;;;;7384768;19;20010;-71
2023/12/24 10:42:56;;;;;;;0.73;0.50;;;9.50;1.00;;;;;;7382210;19;20026;-70
2023/12/24 10:45:26;;;;;;;1.00;0.60;;;9.60;1.00;;;;;;7382372;19;20284;-70
2023/12/24 10:47:58;;;;;;;0.77;0.40;;;9.60;1.00;;;;;;7381800;19;20517;-69
2023/12/24 10:50:28;;;;;;;2.53;0.60;;;9.60;1.00;;;;;;7382874;19;20025;-70
2023/12/24 10:52:58;;;;;;;0.63;0.32;;;9.60;1.00;;;;;;7380588;19;20045;-70
2023/12/24 10:55:32;;;;;;;1.25;0.40;;;9.70;1.00;;;;;;7380703;19;20126;-70
2023/12/24 10:58:12;;;;;;;1.63;0.30;;;9.70;1.00;;;;;;7380592;19;20043;-70
2023/12/24 11:00:42;;;;;;;1.00;0.45;;;9.70;1.00;;;;;;7380348;19;20006;-70
2023/12/24 11:03:13;;;;;;;0.50;0.40;;;9.70;1.00;;;;;;7380427;19;20022;-72
2023/12/24 11:05:52;;;;;;;1.30;0.50;;;9.70;1.00;;;;;;7379293;19;20082;-71
2023/12/24 11:08:32;;;;;;;0.60;0.45;;;9.70;1.00;;;;;;7378791;19;20041;-71
2023/12/24 11:11:06;;;;;;;1.23;0.30;;;9.80;1.00;;;;;;7379574;19;20026;-71
2023/12/24 11:13:47;;;;;;;0.50;0.30;;;9.90;1.00;;;;;;7381703;19;20007;-70
2023/12/24 11:16:39;;;;;;;0.93;0.38;;;9.90;1.00;;;;;;7378769;19;20027;-71
2023/12/24 11:19:09;;;;;;;0.85;0.40;;;10.00;1.00;;;;;;7375091;19;20458;-71
2023/12/24 11:22:11;;;;;;;0.60;0.25;;;10.00;1.00;;;;;;7376847;19;20014;-70
2023/12/24 11:24:44;;;;;;;1.30;0.40;;;10.10;1.00;;;;;;6870302;19;2004802;-70
2023/12/24 11:27:55;;;;;;;0.40;0.30;;;10.10;1.00;;;;;;6867252;19;2004769;-71
2023/12/24 11:30:25;;;;;;;0.57;0.30;;;10.10;1.00;;;;;;6868482;19;2004741;-71
2023/12/24 11:32:55;;;;;;;0.20;0.20;;;10.10;1.00;;;;;;7379497;19;20014;-70
2023/12/24 11:35:56;;;;;;;1.48;0.30;;;10.10;1.00;;;;;;7378247;19;20018;-70
2023/12/24 11:38:48;;;;;;;4.03;2.33;;;10.20;1.00;;;;;;6867568;19;2004005;-72
2023/12/24 11:41:21;;;;;;;0.60;0.30;;;10.20;1.00;;;;;;7375581;19;20014;-72
2023/12/24 11:43:58;;;;;;;0.68;0.30;;;10.30;1.00;;;;;;7378169;19;20026;-72
2023/12/24 11:46:30;;;;;;;0.22;0.10;;;10.30;1.00;;;;;;7379812;19;20423;-71
2023/12/24 11:49:06;;;;;;;0.10;0.10;;;10.40;1.00;;;;;;7376274;19;20097;-71
2023/12/24 11:51:37;;;;;;;0.20;0.20;;;10.50;1.00;;;;;;7378394;19;20089;-70
2023/12/24 11:54:08;;;;;;;0.30;0.20;;;10.50;1.00;;;;;;7376929;19;20041;-71
2023/12/24 11:56:38;;;;;;;1.10;0.20;;;10.60;1.00;;;;;;7375567;19;20597;-71
2023/12/24 11:59:10;;;;;;;0.45;0.28;;;10.70;1.00;;;;;;7379161;19;20804;-71
2023/12/24 12:01:40;;;;;;;0.20;0.20;;;10.80;1.00;;;;;;7380481;19;20098;-71
2023/12/24 12:04:11;;;;;;;0.30;0.28;;;10.90;1.00;;;;;;7379031;19;20014;-71
2023/12/24 12:06:41;;;;;;;1.05;0.75;;;11.00;1.00;;;;;;7379188;19;20692;-71
2023/12/24 12:09:12;;;;;;;1.02;0.57;;;11.10;1.00;;;;;;7376103;19;20006;-70
2023/12/24 12:11:46;;;;;;;0.55;0.35;;;11.30;1.00;;;;;;7378538;19;20151;-71
2023/12/24 12:14:19;;;;;;;1.02;0.22;;;11.40;1.00;;;;;;7375603;19;20465;-71
2023/12/24 12:16:49;;;;;;;0.20;0.20;;;11.50;1.00;;;;;;7379423;19;20010;-72
2023/12/24 12:19:19;;;;;;;0.52;0.30;;;11.40;1.00;;;;;;7378655;19;20027;-72
2023/12/24 12:21:49;;;;;;;0.30;0.20;;;11.50;1.00;;;;;;7375970;19;20014;-71
2023/12/24 12:24:21;;;;;;;0.32;0.10;;;11.40;1.00;;;;;;7378311;19;20014;-71
2023/12/24 12:26:51;;;;;;;0.30;0.20;;;11.40;1.00;;;;;;7375741;19;20019;-71
2023/12/24 12:29:24;;;;;;;0.80;0.30;;;11.30;1.00;;;;;;7373453;19;20078;-72
2023/12/24 12:31:57;;;;;;;0.60;0.20;;;11.30;1.00;;;;;;7377624;19;20441;-71
2023/12/24 12:34:27;;;;;;;0.40;0.30;;;11.20;1.00;;;;;;7378184;19;20408;-71
2023/12/24 12:36:58;;;;;;;0.63;0.22;;;11.20;1.00;;;;;;7379009;19;20027;-72
2023/12/24 12:39:28;;;;;;;0.70;0.30;;;11.10;1.00;;;;;;7378175;19;20625;-70
2023/12/24 12:42:00;;;;;;;0.22;0.20;;;11.10;1.00;;;;;;7378192;19;20088;-70
2023/12/24 12:44:33;;;;;;;0.40;0.30;;;11.10;1.00;;;;;;7377232;19;20014;-70
2023/12/24 12:47:03;;;;;;;0.17;0.10;;;11.10;1.00;;;;;;7378192;19;20082;-69
2023/12/24 12:49:33;;;;;;;0.20;0.10;;;11.00;1.00;;;;;;7377421;19;20006;-70
2023/12/24 12:52:03;;;;;;;0.43;0.20;;;11.10;1.00;;;;;;7377561;19;20010;-70
2023/12/24 12:54:33;;;;;;;0.35;0.20;;;11.10;1.00;;;;;;7377092;19;20086;-70
2023/12/24 12:57:03;;;;;;;0.20;0.10;;;11.10;1.00;;;;;;7378013;19;20086;-71
2023/12/24 12:59:36;;;;;;;1.00;0.30;;;11.10;1.00;;;;;;7377537;19;20014;-70
2023/12/24 13:02:07;;;;;;;0.40;0.20;;;11.10;1.00;;;;;;7376808;19;20054;-69
2023/12/24 13:04:37;;;;;;;0.22;0.10;;;11.10;1.00;;;;;;7377714;19;20466;-69
2023/12/24 13:07:08;;;;;;;0.65;0.38;;;11.10;1.00;;;;;;7379791;19;20028;-70
2023/12/24 13:09:45;;;;;;;1.02;0.65;;;11.00;1.00;;;;;;7373300;19;20025;-70
2023/12/24 13:12:20;;;;;;;0.77;0.40;;;11.00;1.00;;;;;;7374725;19;20333;-70
2023/12/24 13:14:59;;;;;;;0.43;0.30;;;11.00;1.00;;;;;;7377101;19;20006;-71
2023/12/24 13:17:29;;;;;;;0.17;0.17;;;10.90;1.00;;;;;;7372832;19;20010;-69
2023/12/24 13:19:59;;;;;;;0.22;0.20;;;10.90;1.00;;;;;;7375535;19;20011;-70
2023/12/24 13:22:30;;;;;;;0.30;0.20;;;10.80;1.00;;;;;;7374704;19;20013;-71
2023/12/24 13:25:00;;;;;;;0.40;0.30;;;10.80;1.00;;;;;;7373168;19;20056;-70
2023/12/24 13:27:31;;;;;;;1.98;0.30;;;10.80;1.00;;;;;;7375395;19;20078;-70